sensor_id;sensor_type;location;lat;lon;timestamp;P1;durP1;ratioP1;P2;durP2;ratioP2
17631;SDS011;8934;51.194;17.150;2022-11-20T00:01:14;57.30;;;29.83;;
17631;SDS011;8934;51.194;17.150;2022-11-20T00:04:02;52.87;;;30.10;;
17631;SDS011;8934;51.194;17.150;2022-11-20T00:06:50;49.00;;;30.00;;
17631;SDS011;8934;51.194;17.150;2022-11-20T00:09:38;56.87;;;30.47;;
17631;SDS011;8934;51.194;17.150;2022-11-20T00:12:28;54.77;;;31.43;;
17631;SDS011;8934;51.194;17.150;2022-11-20T00:15:15;54.33;;;31.50;;
17631;SDS011;8934;51.194;17.150;2022-11-20T00:18:03;55.03;;;30.83;;
17631;SDS011;8934;51.194;17.150;2022-11-20T00:20:51;55.77;;;28.53;;
17631;SDS011;8934;51.194;17.150;2022-11-20T00:23:40;60.93;;;29.90;;
17631;SDS011;8934;51.194;17.150;2022-11-20T00:26:28;56.37;;;30.10;;
17631;SDS011;8934;51.194;17.150;2022-11-20T00:29:17;56.87;;;29.97;;
17631;SDS011;8934;51.194;17.150;2022-11-20T00:32:05;61.47;;;33.43;;
17631;SDS011;8934;51.194;17.150;2022-11-20T00:34:53;61.70;;;34.30;;
17631;SDS011;8934;51.194;17.150;2022-11-20T00:37:41;54.17;;;31.60;;
17631;SDS011;8934;51.194;17.150;2022-11-20T00:40:28;50.83;;;29.07;;
17631;SDS011;8934;51.194;17.150;2022-11-20T00:43:16;54.47;;;31.67;;
17631;SDS011;8934;51.194;17.150;2022-11-20T00:46:06;56.50;;;31.03;;
17631;SDS011;8934;51.194;17.150;2022-11-20T00:48:55;56.23;;;31.63;;
17631;SDS011;8934;51.194;17.150;2022-11-20T00:51:42;65.90;;;34.63;;
17631;SDS011;8934;51.194;17.150;2022-11-20T00:54:30;80.17;;;40.40;;
17631;SDS011;8934;51.194;17.150;2022-11-20T00:57:18;91.53;;;45.43;;
17631;SDS011;8934;51.194;17.150;2022-11-20T01:00:06;90.57;;;46.07;;
17631;SDS011;8934;51.194;17.150;2022-11-20T01:02:56;85.10;;;43.13;;
17631;SDS011;8934;51.194;17.150;2022-11-20T01:05:44;83.10;;;43.47;;
17631;SDS011;8934;51.194;17.150;2022-11-20T01:08:31;78.13;;;41.93;;
17631;SDS011;8934;51.194;17.150;2022-11-20T01:11:21;88.00;;;42.50;;
17631;SDS011;8934;51.194;17.150;2022-11-20T01:14:13;85.60;;;43.33;;
17631;SDS011;8934;51.194;17.150;2022-11-20T01:17:01;85.97;;;45.43;;
17631;SDS011;8934;51.194;17.150;2022-11-20T01:19:51;87.80;;;46.00;;
17631;SDS011;8934;51.194;17.150;2022-11-20T01:22:39;98.17;;;49.90;;
17631;SDS011;8934;51.194;17.150;2022-11-20T01:25:27;93.57;;;47.30;;
17631;SDS011;8934;51.194;17.150;2022-11-20T01:28:14;94.13;;;45.03;;
17631;SDS011;8934;51.194;17.150;2022-11-20T01:31:09;79.60;;;43.77;;
17631;SDS011;8934;51.194;17.150;2022-11-20T01:33:59;84.00;;;42.90;;
17631;SDS011;8934;51.194;17.150;2022-11-20T01:36:49;81.43;;;40.80;;
17631;SDS011;8934;51.194;17.150;2022-11-20T01:39:38;89.83;;;42.67;;
17631;SDS011;8934;51.194;17.150;2022-11-20T01:42:25;76.87;;;39.53;;
17631;SDS011;8934;51.194;17.150;2022-11-20T01:45:51;73.23;;;40.40;;
17631;SDS011;8934;51.194;17.150;2022-11-20T01:48:47;76.63;;;38.83;;
17631;SDS011;8934;51.194;17.150;2022-11-20T01:51:39;74.40;;;39.77;;
17631;SDS011;8934;51.194;17.150;2022-11-20T01:54:31;76.17;;;39.17;;
17631;SDS011;8934;51.194;17.150;2022-11-20T01:57:22;85.23;;;42.60;;
17631;SDS011;8934;51.194;17.150;2022-11-20T02:00:14;80.80;;;43.07;;
17631;SDS011;8934;51.194;17.150;2022-11-20T02:03:05;83.87;;;42.00;;
17631;SDS011;8934;51.194;17.150;2022-11-20T02:05:57;80.43;;;40.83;;
17631;SDS011;8934;51.194;17.150;2022-11-20T02:08:51;78.90;;;41.27;;
17631;SDS011;8934;51.194;17.150;2022-11-20T02:11:40;80.83;;;42.10;;
17631;SDS011;8934;51.194;17.150;2022-11-20T02:14:28;78.03;;;40.97;;
17631;SDS011;8934;51.194;17.150;2022-11-20T02:17:15;75.30;;;40.57;;
17631;SDS011;8934;51.194;17.150;2022-11-20T02:20:03;68.23;;;38.23;;
17631;SDS011;8934;51.194;17.150;2022-11-20T02:22:53;72.23;;;38.90;;
17631;SDS011;8934;51.194;17.150;2022-11-20T02:25:45;73.00;;;36.97;;
17631;SDS011;8934;51.194;17.150;2022-11-20T02:28:34;72.10;;;38.83;;
17631;SDS011;8934;51.194;17.150;2022-11-20T02:31:22;74.60;;;37.17;;
17631;SDS011;8934;51.194;17.150;2022-11-20T02:34:10;64.83;;;36.87;;
17631;SDS011;8934;51.194;17.150;2022-11-20T02:36:58;61.83;;;34.93;;
17631;SDS011;8934;51.194;17.150;2022-11-20T02:39:47;71.43;;;36.97;;
17631;SDS011;8934;51.194;17.150;2022-11-20T02:42:38;62.20;;;34.53;;
17631;SDS011;8934;51.194;17.150;2022-11-20T02:45:26;64.63;;;32.93;;
17631;SDS011;8934;51.194;17.150;2022-11-20T02:48:14;58.07;;;30.10;;
17631;SDS011;8934;51.194;17.150;2022-11-20T02:51:01;56.33;;;31.13;;
17631;SDS011;8934;51.194;17.150;2022-11-20T02:53:50;60.20;;;31.30;;
17631;SDS011;8934;51.194;17.150;2022-11-20T02:56:38;55.73;;;31.30;;
17631;SDS011;8934;51.194;17.150;2022-11-20T02:59:27;53.43;;;29.20;;
17631;SDS011;8934;51.194;17.150;2022-11-20T03:02:15;60.50;;;29.67;;
17631;SDS011;8934;51.194;17.150;2022-11-20T03:05:03;57.97;;;30.80;;
17631;SDS011;8934;51.194;17.150;2022-11-20T03:07:51;55.27;;;29.67;;
17631;SDS011;8934;51.194;17.150;2022-11-20T03:10:39;54.60;;;29.67;;
17631;SDS011;8934;51.194;17.150;2022-11-20T03:13:27;55.23;;;29.27;;
17631;SDS011;8934;51.194;17.150;2022-11-20T03:16:17;57.37;;;30.80;;
17631;SDS011;8934;51.194;17.150;2022-11-20T03:19:05;58.17;;;30.73;;
17631;SDS011;8934;51.194;17.150;2022-11-20T03:21:53;51.97;;;28.17;;
17631;SDS011;8934;51.194;17.150;2022-11-20T03:24:41;50.33;;;27.93;;
17631;SDS011;8934;51.194;17.150;2022-11-20T07:14:29;42.57;;;25.07;;
17631;SDS011;8934;51.194;17.150;2022-11-20T07:17:17;53.17;;;28.03;;
17631;SDS011;8934;51.194;17.150;2022-11-20T07:20:05;56.47;;;27.53;;
17631;SDS011;8934;51.194;17.150;2022-11-20T07:22:53;51.53;;;28.83;;
17631;SDS011;8934;51.194;17.150;2022-11-20T07:25:41;58.40;;;29.67;;
17631;SDS011;8934;51.194;17.150;2022-11-20T07:28:31;46.73;;;26.87;;
17631;SDS011;8934;51.194;17.150;2022-11-20T07:31:19;51.80;;;27.00;;
17631;SDS011;8934;51.194;17.150;2022-11-20T07:34:06;52.03;;;28.80;;
17631;SDS011;8934;51.194;17.150;2022-11-20T07:36:54;63.37;;;31.93;;
17631;SDS011;8934;51.194;17.150;2022-11-20T07:39:42;57.80;;;31.73;;
17631;SDS011;8934;51.194;17.150;2022-11-20T07:42:30;56.63;;;31.63;;
17631;SDS011;8934;51.194;17.150;2022-11-20T07:45:19;61.53;;;30.37;;
17631;SDS011;8934;51.194;17.150;2022-11-20T07:48:07;81.67;;;39.73;;
17631;SDS011;8934;51.194;17.150;2022-11-20T07:50:55;73.87;;;40.00;;
17631;SDS011;8934;51.194;17.150;2022-11-20T07:53:44;77.80;;;39.00;;
17631;SDS011;8934;51.194;17.150;2022-11-20T08:19:17;80.13;;;43.83;;
17631;SDS011;8934;51.194;17.150;2022-11-20T08:22:05;68.73;;;39.13;;
17631;SDS011;8934;51.194;17.150;2022-11-20T08:24:53;60.00;;;35.50;;
17631;SDS011;8934;51.194;17.150;2022-11-20T08:27:41;59.77;;;34.37;;
17631;SDS011;8934;51.194;17.150;2022-11-20T08:30:29;59.33;;;33.90;;
17631;SDS011;8934;51.194;17.150;2022-11-20T08:33:17;57.50;;;33.73;;
17631;SDS011;8934;51.194;17.150;2022-11-20T08:36:07;54.70;;;32.33;;
17631;SDS011;8934;51.194;17.150;2022-11-20T08:38:55;53.53;;;31.50;;
17631;SDS011;8934;51.194;17.150;2022-11-20T08:41:43;54.33;;;30.57;;
17631;SDS011;8934;51.194;17.150;2022-11-20T08:44:31;54.23;;;31.03;;
17631;SDS011;8934;51.194;17.150;2022-11-20T08:50:07;46.33;;;26.90;;
17631;SDS011;8934;51.194;17.150;2022-11-20T08:53:01;47.57;;;27.43;;
17631;SDS011;8934;51.194;17.150;2022-11-20T08:55:49;51.50;;;27.10;;
17631;SDS011;8934;51.194;17.150;2022-11-20T08:58:37;44.53;;;27.73;;
17631;SDS011;8934;51.194;17.150;2022-11-20T09:01:44;40.13;;;25.77;;
17631;SDS011;8934;51.194;17.150;2022-11-20T09:13:08;36.13;;;24.20;;
17631;SDS011;8934;51.194;17.150;2022-11-20T09:15:57;38.67;;;23.77;;
17631;SDS011;8934;51.194;17.150;2022-11-20T09:18:46;36.93;;;24.27;;
17631;SDS011;8934;51.194;17.150;2022-11-20T09:21:56;39.37;;;24.67;;
17631;SDS011;8934;51.194;17.150;2022-11-20T09:24:45;39.77;;;26.13;;
17631;SDS011;8934;51.194;17.150;2022-11-20T09:27:35;43.20;;;26.40;;
17631;SDS011;8934;51.194;17.150;2022-11-20T09:30:22;46.80;;;25.07;;
17631;SDS011;8934;51.194;17.150;2022-11-20T09:33:10;42.50;;;25.23;;
17631;SDS011;8934;51.194;17.150;2022-11-20T09:35:58;36.47;;;23.53;;
17631;SDS011;8934;51.194;17.150;2022-11-20T09:38:46;40.27;;;24.37;;
17631;SDS011;8934;51.194;17.150;2022-11-20T09:41:36;29.70;;;21.03;;
17631;SDS011;8934;51.194;17.150;2022-11-20T09:44:44;31.47;;;20.77;;
17631;SDS011;8934;51.194;17.150;2022-11-20T09:47:53;36.30;;;21.67;;
17631;SDS011;8934;51.194;17.150;2022-11-20T09:51:01;33.33;;;20.77;;
17631;SDS011;8934;51.194;17.150;2022-11-20T09:54:00;35.90;;;20.03;;
17631;SDS011;8934;51.194;17.150;2022-11-20T09:57:01;28.23;;;18.83;;
17631;SDS011;8934;51.194;17.150;2022-11-20T09:59:55;31.60;;;20.00;;
17631;SDS011;8934;51.194;17.150;2022-11-20T10:02:47;31.10;;;20.27;;
17631;SDS011;8934;51.194;17.150;2022-11-20T10:05:40;33.17;;;21.20;;
17631;SDS011;8934;51.194;17.150;2022-11-20T10:08:33;32.93;;;21.87;;
17631;SDS011;8934;51.194;17.150;2022-11-20T10:11:28;38.50;;;22.80;;
17631;SDS011;8934;51.194;17.150;2022-11-20T10:14:25;30.90;;;21.47;;
17631;SDS011;8934;51.194;17.150;2022-11-20T10:17:22;31.57;;;22.20;;
17631;SDS011;8934;51.194;17.150;2022-11-20T10:20:22;35.07;;;20.47;;
17631;SDS011;8934;51.194;17.150;2022-11-20T10:23:22;31.00;;;19.97;;
17631;SDS011;8934;51.194;17.150;2022-11-20T10:26:25;29.40;;;20.07;;
17631;SDS011;8934;51.194;17.150;2022-11-20T10:29:20;31.83;;;21.70;;
17631;SDS011;8934;51.194;17.150;2022-11-20T10:32:16;31.50;;;21.33;;
17631;SDS011;8934;51.194;17.150;2022-11-20T10:35:16;30.07;;;20.27;;
17631;SDS011;8934;51.194;17.150;2022-11-20T10:38:09;35.50;;;22.40;;
17631;SDS011;8934;51.194;17.150;2022-11-20T10:41:04;29.23;;;20.50;;
17631;SDS011;8934;51.194;17.150;2022-11-20T10:44:12;29.90;;;20.73;;
17631;SDS011;8934;51.194;17.150;2022-11-20T10:47:22;32.17;;;20.80;;
17631;SDS011;8934;51.194;17.150;2022-11-20T10:50:11;28.93;;;19.57;;
17631;SDS011;8934;51.194;17.150;2022-11-20T10:53:14;29.20;;;20.80;;
17631;SDS011;8934;51.194;17.150;2022-11-20T10:56:09;35.20;;;21.37;;
17631;SDS011;8934;51.194;17.150;2022-11-20T10:59:16;34.70;;;22.83;;
17631;SDS011;8934;51.194;17.150;2022-11-20T11:02:24;31.97;;;21.33;;
17631;SDS011;8934;51.194;17.150;2022-11-20T11:05:25;32.87;;;21.10;;
17631;SDS011;8934;51.194;17.150;2022-11-20T11:08:21;34.23;;;20.40;;
17631;SDS011;8934;51.194;17.150;2022-11-20T11:11:18;25.43;;;18.30;;
17631;SDS011;8934;51.194;17.150;2022-11-20T11:14:09;27.23;;;17.67;;
17631;SDS011;8934;51.194;17.150;2022-11-20T11:16:57;25.67;;;18.37;;
17631;SDS011;8934;51.194;17.150;2022-11-20T11:19:45;26.73;;;17.73;;
17631;SDS011;8934;51.194;17.150;2022-11-20T11:22:44;25.33;;;18.13;;
17631;SDS011;8934;51.194;17.150;2022-11-20T11:25:35;24.73;;;17.47;;
17631;SDS011;8934;51.194;17.150;2022-11-20T11:28:24;26.10;;;17.00;;
17631;SDS011;8934;51.194;17.150;2022-11-20T11:31:21;24.40;;;16.83;;
17631;SDS011;8934;51.194;17.150;2022-11-20T11:34:11;27.07;;;16.80;;
17631;SDS011;8934;51.194;17.150;2022-11-20T11:37:00;25.53;;;17.20;;
17631;SDS011;8934;51.194;17.150;2022-11-20T11:39:49;23.90;;;16.77;;
17631;SDS011;8934;51.194;17.150;2022-11-20T11:42:59;25.17;;;17.73;;
17631;SDS011;8934;51.194;17.150;2022-11-20T11:45:52;24.40;;;17.57;;
17631;SDS011;8934;51.194;17.150;2022-11-20T11:48:40;25.10;;;17.67;;
17631;SDS011;8934;51.194;17.150;2022-11-20T11:51:34;24.73;;;18.43;;
17631;SDS011;8934;51.194;17.150;2022-11-20T11:54:30;26.63;;;19.37;;
17631;SDS011;8934;51.194;17.150;2022-11-20T11:57:23;26.83;;;18.87;;
17631;SDS011;8934;51.194;17.150;2022-11-20T12:00:18;27.67;;;18.40;;
17631;SDS011;8934;51.194;17.150;2022-11-20T12:03:09;25.90;;;17.97;;
17631;SDS011;8934;51.194;17.150;2022-11-20T12:06:05;25.77;;;17.87;;
17631;SDS011;8934;51.194;17.150;2022-11-20T12:08:57;25.50;;;17.47;;
17631;SDS011;8934;51.194;17.150;2022-11-20T12:11:49;22.57;;;16.63;;
17631;SDS011;8934;51.194;17.150;2022-11-20T12:14:42;23.17;;;16.63;;
17631;SDS011;8934;51.194;17.150;2022-11-20T12:17:36;22.07;;;16.07;;
17631;SDS011;8934;51.194;17.150;2022-11-20T12:20:26;25.93;;;16.83;;
17631;SDS011;8934;51.194;17.150;2022-11-20T12:23:20;19.60;;;15.27;;
17631;SDS011;8934;51.194;17.150;2022-11-20T12:26:17;20.73;;;16.23;;
17631;SDS011;8934;51.194;17.150;2022-11-20T12:29:16;21.67;;;15.67;;
17631;SDS011;8934;51.194;17.150;2022-11-20T12:32:24;20.40;;;14.77;;
17631;SDS011;8934;51.194;17.150;2022-11-20T12:35:41;17.97;;;13.20;;
17631;SDS011;8934;51.194;17.150;2022-11-20T12:38:56;19.90;;;14.70;;
17631;SDS011;8934;51.194;17.150;2022-11-20T12:42:10;20.43;;;15.07;;
17631;SDS011;8934;51.194;17.150;2022-11-20T12:45:56;18.10;;;13.60;;
17631;SDS011;8934;51.194;17.150;2022-11-20T12:49:06;19.90;;;15.00;;
17631;SDS011;8934;51.194;17.150;2022-11-20T12:52:08;21.63;;;15.03;;
17631;SDS011;8934;51.194;17.150;2022-11-20T12:55:09;23.93;;;15.37;;
17631;SDS011;8934;51.194;17.150;2022-11-20T12:58:09;21.50;;;14.40;;
17631;SDS011;8934;51.194;17.150;2022-11-20T13:01:00;20.57;;;14.87;;
17631;SDS011;8934;51.194;17.150;2022-11-20T13:03:54;22.10;;;15.67;;
17631;SDS011;8934;51.194;17.150;2022-11-20T13:06:50;19.23;;;14.30;;
17631;SDS011;8934;51.194;17.150;2022-11-20T13:09:41;19.67;;;13.63;;
17631;SDS011;8934;51.194;17.150;2022-11-20T13:12:31;17.57;;;13.00;;
17631;SDS011;8934;51.194;17.150;2022-11-20T13:15:27;17.37;;;13.63;;
17631;SDS011;8934;51.194;17.150;2022-11-20T13:18:33;19.03;;;14.13;;
17631;SDS011;8934;51.194;17.150;2022-11-20T13:21:34;16.97;;;13.60;;
17631;SDS011;8934;51.194;17.150;2022-11-20T13:24:24;17.03;;;13.17;;
17631;SDS011;8934;51.194;17.150;2022-11-20T13:27:19;19.10;;;13.27;;
17631;SDS011;8934;51.194;17.150;2022-11-20T13:30:13;23.03;;;14.27;;
17631;SDS011;8934;51.194;17.150;2022-11-20T13:41:33;18.33;;;14.40;;
17631;SDS011;8934;51.194;17.150;2022-11-20T13:44:25;21.97;;;15.03;;
17631;SDS011;8934;51.194;17.150;2022-11-20T13:47:20;19.37;;;15.03;;
17631;SDS011;8934;51.194;17.150;2022-11-20T13:50:09;17.17;;;14.37;;
17631;SDS011;8934;51.194;17.150;2022-11-20T13:52:58;17.37;;;13.60;;
17631;SDS011;8934;51.194;17.150;2022-11-20T13:55:59;15.87;;;12.80;;
17631;SDS011;8934;51.194;17.150;2022-11-20T13:58:54;20.17;;;14.27;;
17631;SDS011;8934;51.194;17.150;2022-11-20T14:01:52;20.10;;;14.17;;
17631;SDS011;8934;51.194;17.150;2022-11-20T14:04:42;17.80;;;13.63;;
17631;SDS011;8934;51.194;17.150;2022-11-20T14:07:34;21.57;;;15.83;;
17631;SDS011;8934;51.194;17.150;2022-11-20T14:10:26;19.43;;;14.97;;
17631;SDS011;8934;51.194;17.150;2022-11-20T14:13:18;19.70;;;13.47;;
17631;SDS011;8934;51.194;17.150;2022-11-20T14:16:08;17.70;;;13.53;;
17631;SDS011;8934;51.194;17.150;2022-11-20T14:19:08;22.87;;;16.17;;
17631;SDS011;8934;51.194;17.150;2022-11-20T14:22:16;21.10;;;16.27;;
17631;SDS011;8934;51.194;17.150;2022-11-20T14:25:14;22.10;;;15.93;;
17631;SDS011;8934;51.194;17.150;2022-11-20T14:28:10;19.97;;;14.37;;
17631;SDS011;8934;51.194;17.150;2022-11-20T14:31:08;15.03;;;12.50;;
17631;SDS011;8934;51.194;17.150;2022-11-20T14:34:12;13.97;;;11.47;;
17631;SDS011;8934;51.194;17.150;2022-11-20T14:37:05;13.70;;;10.90;;
17631;SDS011;8934;51.194;17.150;2022-11-20T14:40:02;12.77;;;10.07;;
17631;SDS011;8934;51.194;17.150;2022-11-20T14:42:52;12.73;;;10.43;;
17631;SDS011;8934;51.194;17.150;2022-11-20T14:45:40;13.07;;;9.60;;
17631;SDS011;8934;51.194;17.150;2022-11-20T14:48:29;11.30;;;8.90;;
17631;SDS011;8934;51.194;17.150;2022-11-20T14:51:28;12.63;;;9.57;;
17631;SDS011;8934;51.194;17.150;2022-11-20T14:54:19;12.20;;;10.03;;
17631;SDS011;8934;51.194;17.150;2022-11-20T14:57:18;12.63;;;9.97;;
17631;SDS011;8934;51.194;17.150;2022-11-20T15:00:17;11.97;;;9.23;;
17631;SDS011;8934;51.194;17.150;2022-11-20T15:03:14;15.03;;;11.30;;
17631;SDS011;8934;51.194;17.150;2022-11-20T15:06:03;15.60;;;12.10;;
17631;SDS011;8934;51.194;17.150;2022-11-20T15:08:52;15.67;;;11.57;;
17631;SDS011;8934;51.194;17.150;2022-11-20T15:11:40;17.77;;;12.40;;
17631;SDS011;8934;51.194;17.150;2022-11-20T15:14:40;18.77;;;12.53;;
17631;SDS011;8934;51.194;17.150;2022-11-20T15:17:28;19.97;;;13.47;;
17631;SDS011;8934;51.194;17.150;2022-11-20T15:20:17;18.63;;;12.37;;
17631;SDS011;8934;51.194;17.150;2022-11-20T15:23:08;19.53;;;12.47;;
17631;SDS011;8934;51.194;17.150;2022-11-20T15:48:49;21.10;;;14.13;;
17631;SDS011;8934;51.194;17.150;2022-11-20T16:00:06;28.33;;;17.87;;
17631;SDS011;8934;51.194;17.150;2022-11-20T16:02:55;31.07;;;18.70;;
17631;SDS011;8934;51.194;17.150;2022-11-20T16:17:12;46.65;;;23.55;;
17631;SDS011;8934;51.194;17.150;2022-11-20T16:22:47;38.23;;;21.70;;
17631;SDS011;8934;51.194;17.150;2022-11-20T16:25:35;39.73;;;22.50;;
17631;SDS011;8934;51.194;17.150;2022-11-20T16:28:23;48.47;;;23.07;;
17631;SDS011;8934;51.194;17.150;2022-11-20T20:02:05;58.60;;;32.30;;
17631;SDS011;8934;51.194;17.150;2022-11-20T20:13:16;59.70;;;30.40;;
17631;SDS011;8934;51.194;17.150;2022-11-20T20:27:17;76.70;;;36.60;;
17631;SDS011;8934;51.194;17.150;2022-11-20T20:30:07;81.33;;;39.87;;
17631;SDS011;8934;51.194;17.150;2022-11-20T20:32:56;87.63;;;43.67;;
17631;SDS011;8934;51.194;17.150;2022-11-20T22:22:45;119.73;;;58.07;;
17631;SDS011;8934;51.194;17.150;2022-11-20T22:25:33;111.10;;;53.60;;
17631;SDS011;8934;51.194;17.150;2022-11-20T22:28:22;106.50;;;51.80;;
17631;SDS011;8934;51.194;17.150;2022-11-20T22:31:10;101.10;;;52.07;;
